Carrigan, Illinois
Current Conditions -  °F | °C
As of 4:15 AM on Monday 26 Jan 2015 (Local Time) from KSLO Reporting Station
Overcast Overcast  
Wind Chill: 20°   Ceiling: 1400
Heat Index: 30°   Visibility: 10mi
Dew Point: 25°   Wind: 13mph
Humidity: 82%   Direction: 310°NW
Pressure: 30"   Gusts: NA
Location:  38.7613°N, 89.0868°W
Report Text: KSLO 261015Z AUTO 31011KT 10SM OVC014 M01/M04 A3000 RMK AO2 T10101038
Loading
Personal Weather Stations






























Interactive Weather Map New forecast layout! Learn more

10-Day Weather Forecast

Advertisements
Track Severe Weather on mobile